createdAt,value
2024-01-30T00:00:29.309Z,80.57
2024-01-30T00:01:01.219Z,79.90
2024-01-30T00:01:33.081Z,81.53
2024-01-30T00:02:05.117Z,81.97
2024-01-30T00:02:36.954Z,81.43
2024-01-30T00:03:08.740Z,81.53
2024-01-30T00:03:40.572Z,81.40
2024-01-30T00:04:12.764Z,79.50
2024-01-30T00:04:44.585Z,80.47
2024-01-30T00:05:16.471Z,79.07
2024-01-30T00:05:48.545Z,83.37
2024-01-30T00:06:24.956Z,82.63
2024-01-30T00:06:56.809Z,80.57
2024-01-30T00:07:28.674Z,79.90
2024-01-30T00:08:00.574Z,79.17
2024-01-30T00:08:32.482Z,79.90
2024-01-30T00:09:04.334Z,82.80
2024-01-30T00:09:38.709Z,82.60
2024-01-30T00:10:10.550Z,82.93
2024-01-30T00:10:42.361Z,80.90
2024-01-30T00:11:14.091Z,82.80
2024-01-30T00:11:45.863Z,83.30
2024-01-30T00:12:17.685Z,83.53
2024-01-30T00:12:49.458Z,83.77
2024-01-30T00:13:21.558Z,83.53
2024-01-30T00:13:53.696Z,85.77
2024-01-30T00:14:25.499Z,85.00
2024-01-30T00:14:57.426Z,83.67
2024-01-30T00:15:29.388Z,84.80
2024-01-30T00:16:01.231Z,84.00
2024-01-30T00:16:33.239Z,82.57
2024-01-30T00:17:05.586Z,82.17
2024-01-30T00:17:38.556Z,79.90
2024-01-30T00:18:10.403Z,80.20
2024-01-30T00:18:42.269Z,82.50
2024-01-30T00:19:14.126Z,81.30
2024-01-30T00:19:46.114Z,79.50
2024-01-30T00:20:17.974Z,79.17
2024-01-30T00:20:49.795Z,80.77
2024-01-30T00:21:21.855Z,81.97
2024-01-30T00:21:53.632Z,82.50
2024-01-30T00:22:25.476Z,80.53
2024-01-30T00:22:57.278Z,80.43
2024-01-30T00:23:29.044Z,80.53
2024-01-30T00:24:00.802Z,79.63
2024-01-30T00:24:32.610Z,80.23
2024-01-30T00:25:04.618Z,83.23
2024-01-30T00:25:36.415Z,83.03
2024-01-30T00:26:08.176Z,84.33
2024-01-30T00:26:39.935Z,84.30
2024-01-30T00:27:11.692Z,82.47
2024-01-30T00:27:43.520Z,80.37
2024-01-30T00:28:15.365Z,81.50
2024-01-30T00:28:47.158Z,83.20
2024-01-30T00:29:20.986Z,86.50
2024-01-30T00:29:52.801Z,84.37
2024-01-30T00:30:24.594Z,82.87
2024-01-30T00:30:56.396Z,80.83
2024-01-30T00:31:28.187Z,80.40
2024-01-30T00:31:59.968Z,80.17
2024-01-30T00:32:31.835Z,79.03
2024-01-30T00:33:03.716Z,76.93
2024-01-30T00:33:35.504Z,76.90
2024-01-30T00:34:07.344Z,76.10
2024-01-30T00:34:39.278Z,77.30
2024-01-30T00:35:12.227Z,76.93
2024-01-30T00:35:44.004Z,76.20
2024-01-30T00:36:15.772Z,76.50
2024-01-30T00:36:47.561Z,75.77
2024-01-30T00:37:19.436Z,77.30
2024-01-30T00:37:51.315Z,78.40
2024-01-30T00:38:23.298Z,77.00
2024-01-30T00:38:55.092Z,75.83
2024-01-30T00:39:27.086Z,77.57
2024-01-30T00:39:58.895Z,77.20
2024-01-30T00:40:31.271Z,77.83
2024-01-30T00:41:03.402Z,75.97
2024-01-30T00:41:36.182Z,72.73
2024-01-30T00:42:08.179Z,73.87
2024-01-30T00:42:39.961Z,73.77
2024-01-30T00:43:11.928Z,72.23
2024-01-30T00:43:43.731Z,73.10
2024-01-30T00:44:15.508Z,72.83
2024-01-30T00:44:47.565Z,71.20
2024-01-30T00:45:19.456Z,70.70
2024-01-30T00:45:53.269Z,71.03
2024-01-30T00:46:25.110Z,74.47
2024-01-30T00:46:56.922Z,73.90
2024-01-30T00:47:30.389Z,71.43
2024-01-30T00:48:02.177Z,72.23
2024-01-30T00:48:33.941Z,72.73
2024-01-30T00:49:05.906Z,74.20
2024-01-30T00:49:37.909Z,73.20
2024-01-30T00:50:10.236Z,75.40
2024-01-30T00:50:42.040Z,72.17
2024-01-30T00:51:13.795Z,72.93
2024-01-30T00:51:45.576Z,75.10
2024-01-30T00:52:17.419Z,74.77
2024-01-30T00:52:49.314Z,73.10
2024-01-30T00:53:21.137Z,73.43
2024-01-30T00:53:52.973Z,71.70
2024-01-30T00:54:24.767Z,71.83
2024-01-30T00:54:56.552Z,72.27
2024-01-30T00:55:28.346Z,73.27
2024-01-30T00:56:00.171Z,71.57
2024-01-30T00:56:32.134Z,69.13
2024-01-30T00:57:04.012Z,68.93
2024-01-30T00:57:35.796Z,68.57
2024-01-30T00:58:07.571Z,68.07
2024-01-30T00:58:39.352Z,67.37
2024-01-30T00:59:11.139Z,67.90
2024-01-30T00:59:42.922Z,67.83
2024-01-30T01:00:18.443Z,68.97
2024-01-30T01:00:50.421Z,67.33
2024-01-30T01:01:22.428Z,66.83
2024-01-30T01:01:54.391Z,63.17
2024-01-30T01:02:26.249Z,63.90
2024-01-30T01:02:58.156Z,64.43
2024-01-30T01:03:32.174Z,62.70
2024-01-30T01:04:04.061Z,61.13
2024-01-30T01:04:36.020Z,60.47
2024-01-30T01:05:07.909Z,62.77
2024-01-30T01:05:40.313Z,60.77
2024-01-30T01:06:12.333Z,59.50
2024-01-30T01:06:45.603Z,59.23
2024-01-30T01:07:17.699Z,60.27
2024-01-30T01:07:49.776Z,61.10
2024-01-30T01:08:21.690Z,60.10
2024-01-30T01:08:53.455Z,61.23
2024-01-30T01:09:25.205Z,60.80
2024-01-30T01:09:57.004Z,59.93
2024-01-30T01:10:29.429Z,61.27
2024-01-30T01:11:01.233Z,60.83
2024-01-30T01:11:33.008Z,61.33
2024-01-30T01:12:05.538Z,61.33
2024-01-30T01:12:37.392Z,60.20
2024-01-30T01:13:09.298Z,60.43
2024-01-30T01:13:41.261Z,64.80
2024-01-30T01:14:13.042Z,63.70
2024-01-30T01:14:44.878Z,63.10
2024-01-30T01:15:16.654Z,62.03
2024-01-30T01:15:48.442Z,60.60
2024-01-30T01:16:22.920Z,62.63
2024-01-30T01:16:54.913Z,63.10
2024-01-30T01:17:26.698Z,59.27
2024-01-30T01:17:58.512Z,61.27
2024-01-30T01:18:30.320Z,60.27
2024-01-30T01:19:02.433Z,61.43
2024-01-30T01:19:34.652Z,60.80
2024-01-30T01:20:07.568Z,61.60
2024-01-30T01:20:39.328Z,61.63
2024-01-30T01:21:11.095Z,60.40
2024-01-30T01:21:42.904Z,60.80
2024-01-30T01:22:14.716Z,61.17
2024-01-30T01:22:46.540Z,58.23
2024-01-30T01:23:18.323Z,61.30
2024-01-30T01:23:50.088Z,63.23
2024-01-30T01:24:22.141Z,61.50
2024-01-30T01:24:54.002Z,61.77
2024-01-30T01:25:26.007Z,62.27
2024-01-30T01:26:00.627Z,60.27
2024-01-30T01:26:32.979Z,61.30
2024-01-30T01:27:04.866Z,62.70
2024-01-30T01:27:41.636Z,63.57
2024-01-30T01:28:14.464Z,61.77
2024-01-30T01:28:46.598Z,63.40
2024-01-30T01:29:18.395Z,64.00
2024-01-30T01:29:50.255Z,60.73
2024-01-30T01:30:24.974Z,57.63
2024-01-30T01:31:00.556Z,59.47
2024-01-30T01:31:32.471Z,63.77
2024-01-30T01:32:04.433Z,62.27
2024-01-30T01:32:36.213Z,60.93
2024-01-30T01:33:08.245Z,59.93
2024-01-30T01:33:40.306Z,57.70
2024-01-30T01:34:12.968Z,54.03
2024-01-30T01:34:44.977Z,56.20
2024-01-30T01:35:16.880Z,50.33
2024-01-30T01:35:48.701Z,59.53
2024-01-30T01:36:20.469Z,62.27
2024-01-30T01:36:52.557Z,62.73
2024-01-30T01:37:27.845Z,64.63
2024-01-30T01:38:01.562Z,65.77
2024-01-30T01:38:33.352Z,65.33
2024-01-30T01:39:05.264Z,65.73
2024-01-30T01:39:37.034Z,64.87
2024-01-30T01:40:09.043Z,65.50
2024-01-30T01:40:41.119Z,64.40
2024-01-30T01:41:12.872Z,63.00
2024-01-30T01:41:44.689Z,64.30
2024-01-30T01:42:16.452Z,65.60
2024-01-30T01:42:52.246Z,66.17
2024-01-30T01:43:24.222Z,65.17
2024-01-30T01:43:56.028Z,63.03
2024-01-30T01:44:28.161Z,64.17
2024-01-30T01:44:59.922Z,64.37
2024-01-30T01:45:31.700Z,63.47
2024-01-30T01:46:03.736Z,62.63
2024-01-30T01:46:35.808Z,63.23
2024-01-30T01:47:07.991Z,62.17
2024-01-30T01:47:39.824Z,61.23
2024-01-30T01:48:12.304Z,62.27
2024-01-30T01:48:44.719Z,61.17
2024-01-30T01:49:16.881Z,61.83
2024-01-30T01:49:49.201Z,61.13
2024-01-30T01:50:23.318Z,63.77
2024-01-30T01:50:55.504Z,63.07
2024-01-30T01:51:29.077Z,63.60
2024-01-30T01:52:01.696Z,61.87
2024-01-30T01:52:33.720Z,60.63
2024-01-30T01:53:09.055Z,58.80
2024-01-30T01:53:40.829Z,58.90
2024-01-30T01:54:12.922Z,59.27
2024-01-30T01:54:44.839Z,59.20
2024-01-30T01:55:17.526Z,58.73
2024-01-30T01:55:49.656Z,59.27
2024-01-30T01:56:22.303Z,60.30
2024-01-30T01:56:54.333Z,60.00
2024-01-30T01:57:26.140Z,61.37
2024-01-30T01:57:58.144Z,61.83
2024-01-30T01:58:30.832Z,60.07
2024-01-30T01:59:06.789Z,60.20
2024-01-30T01:59:38.741Z,58.87
2024-01-30T02:00:11.802Z,60.63
2024-01-30T02:00:43.734Z,59.13
2024-01-30T02:01:15.896Z,61.07
2024-01-30T02:01:50.593Z,59.80
2024-01-30T02:02:24.997Z,61.00
2024-01-30T02:02:57.755Z,60.80
2024-01-30T02:03:29.871Z,58.60
2024-01-30T02:04:02.291Z,58.67
2024-01-30T02:04:34.231Z,60.73
2024-01-30T02:05:06.392Z,60.27
2024-01-30T02:05:38.345Z,58.97
2024-01-30T02:06:10.549Z,60.13
2024-01-30T02:06:42.608Z,59.87
2024-01-30T02:07:14.679Z,58.13
2024-01-30T02:07:46.579Z,61.13
2024-01-30T02:08:18.447Z,60.00
2024-01-30T02:08:50.228Z,59.87
2024-01-30T02:09:22.162Z,58.30
2024-01-30T02:09:53.969Z,58.07
2024-01-30T02:10:25.856Z,57.73
2024-01-30T02:10:57.703Z,55.90
2024-01-30T02:11:29.574Z,58.50
2024-01-30T02:12:01.649Z,59.43
2024-01-30T02:12:33.435Z,57.30
2024-01-30T02:13:06.045Z,56.70
2024-01-30T02:13:38.144Z,58.40
2024-01-30T02:14:09.897Z,60.67
2024-01-30T02:14:47.978Z,58.77
2024-01-30T02:15:19.804Z,58.80
2024-01-30T02:15:52.110Z,58.50
2024-01-30T02:16:23.946Z,57.57
2024-01-30T02:16:58.259Z,57.83
2024-01-30T02:17:30.089Z,56.53
2024-01-30T02:18:01.911Z,56.33
2024-01-30T02:18:33.713Z,58.13
2024-01-30T02:19:06.729Z,56.73
2024-01-30T02:19:38.926Z,57.87
2024-01-30T02:20:11.091Z,58.03
2024-01-30T02:20:43.254Z,60.50
2024-01-30T02:21:16.686Z,60.90
2024-01-30T02:21:48.534Z,60.43
2024-01-30T02:22:21.527Z,59.80
2024-01-30T02:22:55.596Z,59.97
2024-01-30T02:23:27.366Z,58.47
2024-01-30T02:24:01.064Z,59.57
2024-01-30T02:24:32.946Z,58.57
2024-01-30T02:25:04.892Z,56.73
2024-01-30T02:25:39.831Z,56.70
2024-01-30T02:26:13.139Z,58.27
2024-01-30T02:26:45.235Z,56.07
2024-01-30T02:27:16.983Z,55.53
2024-01-30T02:27:48.819Z,57.30
2024-01-30T02:28:21.391Z,58.77
2024-01-30T02:28:53.203Z,57.10
2024-01-30T02:29:25.015Z,56.90
2024-01-30T02:29:56.803Z,58.57
2024-01-30T02:30:28.576Z,59.73
2024-01-30T02:31:00.395Z,60.13
2024-01-30T02:31:32.223Z,60.10
2024-01-30T02:32:04.163Z,58.47
2024-01-30T02:32:35.956Z,58.00
2024-01-30T02:33:07.824Z,56.87
2024-01-30T02:33:39.659Z,56.73
2024-01-30T02:34:11.656Z,55.43
2024-01-30T02:34:43.997Z,55.00
2024-01-30T02:35:15.929Z,54.87
2024-01-30T02:35:47.756Z,55.50
2024-01-30T02:36:19.622Z,55.40
2024-01-30T02:36:51.455Z,55.90
2024-01-30T02:37:23.507Z,55.90
2024-01-30T02:37:55.346Z,57.10
2024-01-30T02:38:28.142Z,58.10
2024-01-30T02:39:00.044Z,57.40
2024-01-30T02:39:31.809Z,56.97
2024-01-30T02:40:03.995Z,56.90
2024-01-30T02:40:35.809Z,57.17
2024-01-30T02:41:07.596Z,57.87
2024-01-30T02:41:39.352Z,57.87
2024-01-30T02:42:11.111Z,56.97
2024-01-30T02:42:43.184Z,55.87
2024-01-30T02:43:15.176Z,59.60
2024-01-30T02:43:47.144Z,58.23
2024-01-30T02:44:19.036Z,55.77
2024-01-30T02:44:50.787Z,56.70
2024-01-30T02:45:22.541Z,56.23
2024-01-30T02:45:54.329Z,55.27
2024-01-30T02:46:26.179Z,54.80
2024-01-30T02:46:57.972Z,57.33
2024-01-30T02:47:29.845Z,55.90
2024-01-30T02:48:01.655Z,56.23
2024-01-30T02:48:33.556Z,56.40
2024-01-30T02:49:05.484Z,56.60
2024-01-30T02:49:37.393Z,55.23
2024-01-30T02:50:09.506Z,55.63
2024-01-30T02:50:41.371Z,56.80
2024-01-30T02:51:13.142Z,55.57
2024-01-30T02:51:44.999Z,55.40
2024-01-30T02:52:16.825Z,56.40
2024-01-30T02:52:48.610Z,54.53
2024-01-30T02:53:20.354Z,54.63
2024-01-30T02:53:52.102Z,56.33
2024-01-30T02:54:23.861Z,56.47
2024-01-30T02:54:55.732Z,55.90
2024-01-30T02:55:27.643Z,54.83
2024-01-30T02:55:59.408Z,57.00
2024-01-30T02:56:31.191Z,56.07
2024-01-30T02:57:03.029Z,55.83
2024-01-30T02:57:35.519Z,56.00
2024-01-30T02:58:07.327Z,56.50
2024-01-30T02:58:39.131Z,53.87
2024-01-30T02:59:10.983Z,53.00
2024-01-30T02:59:43.191Z,54.47
2024-01-30T03:00:15.557Z,57.07
2024-01-30T03:00:47.423Z,54.00
2024-01-30T03:01:19.470Z,45.60
2024-01-30T03:01:51.373Z,53.30
2024-01-30T03:02:23.265Z,52.00
2024-01-30T03:02:55.045Z,48.07
2024-01-30T03:03:26.824Z,49.73
2024-01-30T03:03:58.698Z,52.47
2024-01-30T03:04:31.529Z,51.80
2024-01-30T03:05:04.982Z,50.47
2024-01-30T03:05:36.962Z,42.07
2024-01-30T03:06:08.734Z,39.63
2024-01-30T03:06:40.609Z,42.83
2024-01-30T03:07:12.750Z,45.50
2024-01-30T03:07:44.716Z,47.13
2024-01-30T03:08:16.634Z,39.83
2024-01-30T03:08:48.464Z,41.80
2024-01-30T03:09:20.246Z,46.47
2024-01-30T03:09:52.119Z,47.30
2024-01-30T03:10:24.057Z,46.77
2024-01-30T03:10:55.833Z,44.37
2024-01-30T03:11:27.604Z,41.17
2024-01-30T03:11:59.413Z,39.03
2024-01-30T03:12:31.183Z,43.83
2024-01-30T03:13:03.041Z,46.83
2024-01-30T03:13:34.843Z,41.73
2024-01-30T03:14:06.644Z,40.20
2024-01-30T03:14:38.844Z,42.97
2024-01-30T03:15:11.203Z,35.30
2024-01-30T03:15:43.018Z,32.47
2024-01-30T03:16:17.724Z,43.13
2024-01-30T03:16:49.532Z,36.67
2024-01-30T03:17:21.289Z,42.30
2024-01-30T03:17:54.693Z,42.63
2024-01-30T03:18:26.602Z,38.23
2024-01-30T03:18:58.503Z,39.87
2024-01-30T03:19:30.512Z,40.97
2024-01-30T03:20:02.569Z,36.33
2024-01-30T03:20:34.965Z,42.17
2024-01-30T03:21:06.993Z,43.33
2024-01-30T03:21:39.005Z,43.53
2024-01-30T03:22:11.228Z,39.93
2024-01-30T03:22:43.260Z,39.47
2024-01-30T03:23:15.005Z,42.27
2024-01-30T03:23:46.785Z,42.60
2024-01-30T03:24:18.587Z,40.27
2024-01-30T03:24:50.389Z,39.00
2024-01-30T03:25:22.284Z,41.10
2024-01-30T03:25:54.084Z,39.17
2024-01-30T03:26:27.950Z,41.70
2024-01-30T03:26:59.715Z,39.80
2024-01-30T03:27:31.504Z,40.10
2024-01-30T03:28:03.380Z,34.73
2024-01-30T03:28:35.183Z,33.90
2024-01-30T03:29:07.062Z,37.37
2024-01-30T03:29:38.856Z,34.73
2024-01-30T03:30:10.733Z,35.03
2024-01-30T03:30:42.625Z,36.63
2024-01-30T03:31:15.893Z,35.47
2024-01-30T03:31:47.663Z,35.77
2024-01-30T03:32:19.414Z,37.03
2024-01-30T03:32:51.593Z,40.83
2024-01-30T03:33:23.484Z,38.73
2024-01-30T03:33:55.521Z,40.70
2024-01-30T03:34:27.945Z,36.73
2024-01-30T03:35:00.659Z,34.93
2024-01-30T03:35:32.743Z,38.20
2024-01-30T03:36:05.166Z,42.50
2024-01-30T03:36:36.914Z,38.90
2024-01-30T03:37:08.755Z,36.77
2024-01-30T03:37:40.563Z,35.40
2024-01-30T03:38:12.346Z,37.20
2024-01-30T03:38:44.161Z,39.10
2024-01-30T03:39:16.174Z,37.50
2024-01-30T03:39:47.958Z,36.47
2024-01-30T03:40:19.810Z,36.63
2024-01-30T03:40:51.637Z,36.57
2024-01-30T03:41:23.395Z,35.50
2024-01-30T03:41:55.237Z,36.13
2024-01-30T03:42:27.133Z,39.30
2024-01-30T03:42:59.319Z,37.47
2024-01-30T03:43:31.121Z,36.03
2024-01-30T03:44:03.065Z,36.47
2024-01-30T03:44:34.842Z,37.80
2024-01-30T03:45:06.862Z,36.20
2024-01-30T03:45:38.656Z,34.40
2024-01-30T03:46:10.518Z,34.73
2024-01-30T03:46:42.296Z,33.57
2024-01-30T03:47:14.053Z,31.67
2024-01-30T03:47:45.837Z,30.53
2024-01-30T03:48:17.609Z,32.80
2024-01-30T03:48:49.444Z,34.67
2024-01-30T03:49:22.391Z,35.07
2024-01-30T03:49:54.336Z,35.70
2024-01-30T03:50:26.199Z,33.93
2024-01-30T03:50:58.058Z,33.77
2024-01-30T03:51:29.820Z,34.60
2024-01-30T03:52:01.599Z,34.97
2024-01-30T03:52:33.426Z,34.50
2024-01-30T03:53:05.347Z,31.67
2024-01-30T03:53:37.116Z,30.40
2024-01-30T03:54:09.194Z,30.77
2024-01-30T03:54:41.047Z,32.43
2024-01-30T03:55:12.887Z,31.37
2024-01-30T03:55:44.912Z,29.17
2024-01-30T03:56:16.752Z,30.37
2024-01-30T03:56:48.624Z,31.60
2024-01-30T03:57:20.396Z,31.17
2024-01-30T03:57:52.179Z,30.83
2024-01-30T03:58:24.001Z,31.83
2024-01-30T03:58:56.875Z,30.03
2024-01-30T03:59:28.917Z,30.43
2024-01-30T04:00:02.798Z,30.63
2024-01-30T04:00:35.270Z,29.10
2024-01-30T04:01:07.358Z,29.97
2024-01-30T04:01:39.368Z,32.13
2024-01-30T04:02:12.438Z,28.20
2024-01-30T04:02:44.329Z,28.33
2024-01-30T04:03:19.390Z,28.73
2024-01-30T04:03:51.222Z,29.70
2024-01-30T04:04:23.232Z,28.37
2024-01-30T04:04:55.214Z,28.83
2024-01-30T04:05:27.101Z,29.67
2024-01-30T04:05:59.091Z,28.93
2024-01-30T04:06:30.904Z,28.93
2024-01-30T04:07:02.709Z,29.77
2024-01-30T04:07:34.510Z,30.33
2024-01-30T04:08:06.403Z,30.53
2024-01-30T04:08:38.438Z,30.20
2024-01-30T04:09:10.181Z,30.47
2024-01-30T04:09:42.008Z,29.53
2024-01-30T04:10:14.198Z,28.37
2024-01-30T04:10:45.990Z,28.80
2024-01-30T04:11:19.565Z,28.53
2024-01-30T04:11:51.334Z,28.63
2024-01-30T04:12:23.116Z,27.87
2024-01-30T04:12:55.622Z,28.83
2024-01-30T04:13:27.605Z,29.53
2024-01-30T04:13:59.491Z,30.33
2024-01-30T04:14:31.374Z,30.53
2024-01-30T04:15:04.626Z,31.10
2024-01-30T04:15:36.456Z,31.03
2024-01-30T04:16:08.277Z,30.03
2024-01-30T04:16:40.073Z,30.80
2024-01-30T04:17:11.869Z,30.17
2024-01-30T04:17:43.698Z,30.07
2024-01-30T04:18:15.501Z,30.00
2024-01-30T04:18:47.417Z,29.27
2024-01-30T04:19:19.330Z,29.23
2024-01-30T04:19:51.347Z,29.97
2024-01-30T04:20:23.197Z,30.10
2024-01-30T04:20:55.248Z,30.70
2024-01-30T04:21:27.000Z,30.40
2024-01-30T04:21:58.814Z,29.23
2024-01-30T04:22:30.996Z,29.47
2024-01-30T04:23:02.776Z,29.53
2024-01-30T04:23:34.597Z,30.33
2024-01-30T04:24:06.617Z,30.83
2024-01-30T04:24:38.446Z,31.63
2024-01-30T04:25:10.257Z,32.60
2024-01-30T04:25:42.050Z,33.07
2024-01-30T04:26:13.856Z,32.37
2024-01-30T04:26:45.620Z,31.47
2024-01-30T04:27:17.387Z,30.70
2024-01-30T04:27:49.270Z,30.73
2024-01-30T04:28:21.159Z,28.93
2024-01-30T04:28:53.188Z,31.00
2024-01-30T04:29:24.954Z,29.73
2024-01-30T04:29:56.744Z,29.47
2024-01-30T04:30:28.505Z,31.97
2024-01-30T04:31:00.333Z,31.30
2024-01-30T04:31:32.133Z,29.93
2024-01-30T04:32:03.993Z,31.83
2024-01-30T04:32:37.738Z,30.97
2024-01-30T04:33:09.675Z,30.77
2024-01-30T04:33:41.617Z,30.83
2024-01-30T04:34:13.492Z,32.70
2024-01-30T04:34:45.525Z,32.37
2024-01-30T04:35:17.545Z,30.30
2024-01-30T04:35:49.466Z,31.87
2024-01-30T04:36:21.238Z,30.97
2024-01-30T04:36:53.053Z,29.30
2024-01-30T04:37:24.978Z,31.00
2024-01-30T04:37:56.769Z,30.70
2024-01-30T04:38:28.537Z,30.10
2024-01-30T04:39:00.344Z,31.07
2024-01-30T04:39:33.956Z,31.07
2024-01-30T04:40:06.577Z,31.10
2024-01-30T04:40:38.479Z,31.03
2024-01-30T04:41:10.225Z,31.50
2024-01-30T04:41:41.985Z,31.17
2024-01-30T04:42:13.744Z,30.33
2024-01-30T04:42:45.580Z,30.63
2024-01-30T04:43:17.421Z,31.47
2024-01-30T04:43:49.236Z,30.10
2024-01-30T04:44:21.023Z,31.70
2024-01-30T04:44:52.821Z,31.63
2024-01-30T04:45:24.592Z,30.97
2024-01-30T04:45:56.367Z,31.73
2024-01-30T04:46:28.156Z,31.90
2024-01-30T04:47:02.611Z,30.50
2024-01-30T04:47:34.488Z,30.53
2024-01-30T04:48:06.578Z,31.70
2024-01-30T04:48:38.405Z,32.13
2024-01-30T04:49:10.413Z,32.47
2024-01-30T04:49:42.343Z,32.63
2024-01-30T04:50:14.675Z,33.60
2024-01-30T04:50:46.471Z,33.10
2024-01-30T04:51:18.250Z,33.03
2024-01-30T04:51:50.069Z,34.07
2024-01-30T04:52:22.292Z,33.87
2024-01-30T04:52:54.099Z,32.43
2024-01-30T04:53:25.904Z,32.57
2024-01-30T04:53:57.662Z,32.80
2024-01-30T04:54:29.532Z,33.77
2024-01-30T04:55:01.291Z,33.37
2024-01-30T04:55:33.148Z,34.77
2024-01-30T04:56:06.034Z,34.83
2024-01-30T04:56:37.805Z,35.53
2024-01-30T04:57:10.867Z,34.40
2024-01-30T04:57:42.677Z,34.50
2024-01-30T04:58:14.551Z,33.70
2024-01-30T04:58:46.361Z,33.33
2024-01-30T04:59:18.137Z,32.33
2024-01-30T04:59:50.184Z,33.67
2024-01-30T05:00:22.033Z,34.67
2024-01-30T05:00:53.883Z,33.10
2024-01-30T05:01:25.810Z,33.80
2024-01-30T05:01:57.881Z,34.37
2024-01-30T05:02:29.715Z,68.90
2024-01-30T05:03:01.465Z,112.60
2024-01-30T05:03:37.245Z,87.77
2024-01-30T05:04:10.441Z,168.87
2024-01-30T05:04:43.454Z,104.83
2024-01-30T05:05:15.315Z,89.27
2024-01-30T05:05:47.194Z,241.43
2024-01-30T05:06:28.109Z,92.43
2024-01-30T05:07:00.002Z,90.53
2024-01-30T05:07:32.045Z,95.00
2024-01-30T05:08:03.890Z,218.47
2024-01-30T05:08:37.835Z,110.10
2024-01-30T05:09:10.509Z,48.80
2024-01-30T05:09:42.280Z,71.97
2024-01-30T05:10:14.237Z,48.37
2024-01-30T05:10:46.077Z,39.97
2024-01-30T05:11:17.927Z,38.77
2024-01-30T05:11:49.675Z,41.83
2024-01-30T05:12:24.178Z,38.93
2024-01-30T05:12:55.996Z,35.83
2024-01-30T05:13:27.857Z,33.67
2024-01-30T05:13:59.686Z,34.27
2024-01-30T05:14:31.437Z,36.13
2024-01-30T05:15:03.215Z,34.87
2024-01-30T05:15:34.993Z,33.67
2024-01-30T05:16:06.922Z,33.07
2024-01-30T05:16:38.820Z,34.93
2024-01-30T05:17:11.491Z,34.23
2024-01-30T05:17:43.312Z,34.63
2024-01-30T05:18:15.330Z,33.17
2024-01-30T05:18:47.225Z,32.73
2024-01-30T05:19:19.299Z,33.63
2024-01-30T05:19:51.263Z,35.07
2024-01-30T05:20:23.185Z,34.63
2024-01-30T05:20:55.063Z,35.17
2024-01-30T05:21:26.909Z,40.20
2024-01-30T05:21:58.743Z,55.03
2024-01-30T05:22:30.558Z,130.90
2024-01-30T05:23:02.350Z,123.93
2024-01-30T05:23:34.119Z,104.97
2024-01-30T05:24:06.015Z,67.03
2024-01-30T05:24:38.274Z,77.60
2024-01-30T05:25:10.082Z,112.10
2024-01-30T05:25:41.968Z,90.10
2024-01-30T05:26:13.755Z,219.40
2024-01-30T05:26:45.637Z,55.50
2024-01-30T05:27:17.388Z,41.30
2024-01-30T05:27:49.194Z,36.23
2024-01-30T05:28:21.177Z,35.23
2024-01-30T05:28:53.087Z,36.13
2024-01-30T05:29:25.723Z,35.40
2024-01-30T05:29:57.488Z,34.70
2024-01-30T05:30:29.386Z,34.63
2024-01-30T05:31:01.220Z,35.37
2024-01-30T05:31:33.128Z,35.03
2024-01-30T05:32:06.762Z,34.77
2024-01-30T05:32:38.683Z,35.77
2024-01-30T05:33:11.286Z,35.20
2024-01-30T05:33:43.568Z,33.87
2024-01-30T05:34:15.950Z,34.40
2024-01-30T05:34:48.034Z,35.10
2024-01-30T05:35:22.351Z,35.97
2024-01-30T05:35:55.950Z,35.27
2024-01-30T05:36:28.015Z,34.30
2024-01-30T05:37:00.270Z,36.00
2024-01-30T05:37:32.576Z,35.13
2024-01-30T05:38:06.370Z,36.23
2024-01-30T05:38:38.122Z,35.53
2024-01-30T05:39:10.426Z,36.10
2024-01-30T05:39:44.771Z,34.70
2024-01-30T05:40:16.676Z,35.13
2024-01-30T05:40:49.992Z,35.93
2024-01-30T05:41:22.447Z,36.30
2024-01-30T05:41:54.216Z,36.57
2024-01-30T05:42:26.482Z,37.37
2024-01-30T05:43:02.202Z,37.73
2024-01-30T05:43:34.054Z,37.23
2024-01-30T05:44:06.166Z,36.97
2024-01-30T05:44:38.198Z,38.07
2024-01-30T05:45:10.556Z,36.77
2024-01-30T05:45:42.501Z,36.13
2024-01-30T05:46:14.426Z,36.33
2024-01-30T05:46:46.199Z,37.17
2024-01-30T05:47:18.545Z,36.83
2024-01-30T05:47:50.344Z,37.73
2024-01-30T05:48:22.580Z,37.53
2024-01-30T05:48:54.591Z,37.27
2024-01-30T05:49:26.509Z,36.20
2024-01-30T05:49:58.489Z,36.63
2024-01-30T05:50:30.398Z,35.93
2024-01-30T05:51:02.525Z,36.73
2024-01-30T05:51:34.404Z,36.23
2024-01-30T05:52:06.517Z,36.00
2024-01-30T05:52:38.526Z,35.00
2024-01-30T05:53:10.401Z,34.53
2024-01-30T05:53:42.205Z,35.63
2024-01-30T05:54:16.897Z,34.97
2024-01-30T05:54:49.673Z,35.33
2024-01-30T05:55:21.665Z,34.97
2024-01-30T05:55:53.589Z,35.63
2024-01-30T05:56:25.359Z,35.27
2024-01-30T05:56:57.143Z,36.03
2024-01-30T05:57:28.909Z,36.30
2024-01-30T05:58:01.060Z,36.57
2024-01-30T05:58:32.882Z,35.80
2024-01-30T05:59:04.891Z,35.87
2024-01-30T05:59:40.756Z,36.83
2024-01-30T06:00:14.152Z,36.23
2024-01-30T06:00:46.058Z,36.10
2024-01-30T06:01:18.066Z,35.60
2024-01-30T06:01:50.225Z,34.93
2024-01-30T06:02:22.089Z,35.83
2024-01-30T06:02:53.852Z,36.63
2024-01-30T06:03:25.915Z,37.63
2024-01-30T06:03:57.783Z,34.67
2024-01-30T06:04:29.689Z,36.13
2024-01-30T06:05:01.618Z,36.67
2024-01-30T06:05:33.490Z,36.80
2024-01-30T06:06:05.372Z,37.07
2024-01-30T06:06:37.150Z,37.87
2024-01-30T06:07:09.425Z,35.67
2024-01-30T06:07:41.366Z,40.57
2024-01-30T06:08:13.326Z,69.13
2024-01-30T06:08:46.668Z,50.00
2024-01-30T06:09:18.475Z,40.13
2024-01-30T06:09:50.252Z,38.77
2024-01-30T06:10:22.119Z,38.37
2024-01-30T06:10:53.952Z,37.83
2024-01-30T06:11:25.770Z,36.87
2024-01-30T06:11:57.547Z,35.90
2024-01-30T06:12:29.463Z,34.70
2024-01-30T06:13:01.296Z,34.73
2024-01-30T06:13:33.262Z,36.30
2024-01-30T06:14:05.063Z,36.77
2024-01-30T06:14:37.190Z,37.77
2024-01-30T06:15:09.210Z,37.30
2024-01-30T06:15:41.029Z,37.60
2024-01-30T06:16:13.269Z,38.30
2024-01-30T06:16:45.179Z,39.90
2024-01-30T06:17:16.944Z,38.90
2024-01-30T06:17:48.729Z,38.33
2024-01-30T06:18:21.928Z,36.93
2024-01-30T06:18:53.757Z,41.40
2024-01-30T06:19:25.690Z,43.40
2024-01-30T06:19:57.625Z,40.40
2024-01-30T06:20:29.726Z,40.80
2024-01-30T06:21:01.573Z,41.00
2024-01-30T06:21:35.471Z,39.93
2024-01-30T06:22:07.262Z,41.27
2024-01-30T06:22:39.101Z,40.83
2024-01-30T06:23:11.454Z,39.77
2024-01-30T06:23:43.243Z,43.13
2024-01-30T06:24:15.138Z,44.07
2024-01-30T06:24:49.261Z,44.57
2024-01-30T06:25:21.220Z,42.43
2024-01-30T06:25:54.181Z,43.33
2024-01-30T06:26:25.954Z,43.67
2024-01-30T06:26:57.752Z,43.77
2024-01-30T06:27:29.630Z,44.43
2024-01-30T06:28:01.491Z,44.83
2024-01-30T06:28:33.329Z,42.63
2024-01-30T06:29:05.482Z,39.27
2024-01-30T06:29:37.288Z,39.57
2024-01-30T06:30:09.337Z,39.00
2024-01-30T06:30:41.119Z,39.57
2024-01-30T06:31:13.196Z,39.93
2024-01-30T06:31:44.962Z,40.90
2024-01-30T06:32:16.984Z,39.73
2024-01-30T06:32:48.802Z,38.90
2024-01-30T06:33:20.646Z,40.73
2024-01-30T06:33:52.639Z,39.13
2024-01-30T06:34:24.640Z,40.27
2024-01-30T06:34:56.512Z,38.33
2024-01-30T06:35:30.246Z,38.93
2024-01-30T06:36:02.041Z,39.10
2024-01-30T06:36:33.840Z,37.87
2024-01-30T06:37:07.396Z,39.33
2024-01-30T06:37:39.403Z,38.90
2024-01-30T06:38:11.678Z,37.67
2024-01-30T06:38:43.419Z,38.87
2024-01-30T06:39:15.328Z,39.60
2024-01-30T06:39:47.125Z,38.73
2024-01-30T06:40:19.054Z,38.80
2024-01-30T06:40:50.894Z,39.90
2024-01-30T06:41:22.762Z,40.30
2024-01-30T06:41:54.564Z,41.57
2024-01-30T06:42:26.430Z,41.70
2024-01-30T06:42:58.283Z,43.13
2024-01-30T06:43:30.272Z,44.07
2024-01-30T06:44:05.307Z,41.87
2024-01-30T06:44:37.086Z,41.90
2024-01-30T06:45:09.368Z,41.77
2024-01-30T06:45:41.694Z,41.70
2024-01-30T06:46:14.460Z,40.93
2024-01-30T06:46:46.299Z,39.97
2024-01-30T06:47:18.080Z,41.90
2024-01-30T06:47:49.901Z,41.30
2024-01-30T06:48:21.941Z,41.73
2024-01-30T06:48:53.741Z,41.80
2024-01-30T06:49:25.685Z,42.17
2024-01-30T06:49:57.593Z,41.90
2024-01-30T06:50:29.594Z,42.43
2024-01-30T06:51:01.448Z,41.70
2024-01-30T06:51:33.947Z,41.47
2024-01-30T06:52:09.025Z,41.43
2024-01-30T06:52:40.907Z,42.30
2024-01-30T06:53:12.680Z,43.30
2024-01-30T06:53:44.566Z,42.13
2024-01-30T06:54:16.362Z,41.73